createdAt,value
2022-10-08T00:01:15.242Z,97829.38
2022-10-08T00:03:41.140Z,97832.91
2022-10-08T00:06:07.093Z,97832.69
2022-10-08T00:08:33.012Z,97835.84
2022-10-08T00:10:58.953Z,97833.66
2022-10-08T00:13:24.893Z,97830.84
2022-10-08T00:15:50.833Z,97827.38
2022-10-08T00:18:16.819Z,97825.38
2022-10-08T00:20:42.795Z,97826.03
2022-10-08T00:23:08.726Z,97826.63
2022-10-08T00:25:34.633Z,97825.41
2022-10-08T00:28:00.883Z,97820.09
2022-10-08T00:30:27.120Z,97816.53
2022-10-08T00:32:57.695Z,97814.22
2022-10-08T00:35:25.930Z,97811.75
2022-10-08T00:37:52.166Z,97811.75
2022-10-08T02:50:21.876Z,97730.63
2022-10-08T02:52:48.064Z,97732.84
2022-10-08T02:55:14.243Z,97730.38
2022-10-08T02:57:40.133Z,97732.66
2022-10-08T03:00:06.066Z,97734.28
2022-10-08T03:02:32.136Z,97724.13
2022-10-08T03:04:58.112Z,97731.91
2022-10-08T03:07:24.027Z,97735.53
2022-10-08T03:09:49.912Z,97730.88
2022-10-08T03:12:15.853Z,97730.25
2022-10-08T03:14:41.762Z,97733.28
2022-10-08T03:17:07.785Z,97737.38
2022-10-08T03:19:33.710Z,97732.06
2022-10-08T03:21:59.629Z,97731.50
2022-10-08T03:24:25.545Z,97728.25
2022-10-08T03:26:51.454Z,97724.75
2022-10-08T03:29:17.394Z,97717.22
2022-10-08T03:31:43.284Z,97722.34
2022-10-08T03:34:09.287Z,97720.72
2022-10-08T03:36:35.201Z,97729.47
2022-10-08T03:39:01.145Z,97721.28
2022-10-08T03:41:27.174Z,97726.16
2022-10-08T03:43:53.136Z,97726.38
2022-10-08T03:46:19.151Z,97725.09
2022-10-08T03:48:45.125Z,97724.72
2022-10-08T03:51:11.038Z,97727.75
2022-10-08T03:53:36.936Z,97729.13
2022-10-08T03:56:02.854Z,97731.94
2022-10-08T03:58:28.790Z,97727.25
2022-10-08T04:00:54.682Z,97724.75
2022-10-08T04:03:20.597Z,97724.97
2022-10-08T04:05:46.544Z,97719.25
2022-10-08T04:08:12.456Z,97723.13
2022-10-08T04:10:38.368Z,97733.97
2022-10-08T04:13:04.325Z,97726.25
2022-10-08T04:15:30.270Z,97729.28
2022-10-08T04:17:56.201Z,97731.47
2022-10-08T04:20:22.119Z,97717.13
2022-10-08T04:22:48.403Z,97719.09
2022-10-08T04:25:14.583Z,97722.13
2022-10-08T04:27:40.478Z,97720.94
2022-10-08T04:30:06.391Z,97722.28
2022-10-08T04:32:32.298Z,97720.28
2022-10-08T04:34:58.200Z,97713.94
2022-10-08T04:37:24.119Z,97720.63
2022-10-08T04:39:50.024Z,97720.66
2022-10-08T04:42:15.945Z,97723.88
2022-10-08T04:44:41.852Z,97717.91
2022-10-08T04:47:07.767Z,97725.88
2022-10-08T04:49:33.675Z,97720.00
2022-10-08T04:51:59.644Z,97715.34
2022-10-08T04:54:25.577Z,97716.22
2022-10-08T04:56:51.502Z,97713.16
2022-10-08T04:59:17.443Z,97720.28
2022-10-08T05:01:43.390Z,97724.06
2022-10-08T05:04:09.331Z,97717.91
2022-10-08T05:06:35.231Z,97717.75
2022-10-08T05:09:01.147Z,97724.13
2022-10-08T05:11:27.106Z,97724.50
2022-10-08T05:13:53.038Z,97723.97
2022-10-08T05:16:19.079Z,97725.03
2022-10-08T05:18:45.020Z,97727.69
2022-10-08T05:21:10.939Z,97732.34
2022-10-08T05:23:36.979Z,97734.41
2022-10-08T05:26:03.204Z,97727.03
2022-10-08T05:28:29.470Z,97737.28
2022-10-08T05:30:55.775Z,97736.13
2022-10-08T05:33:21.978Z,97729.19
2022-10-08T05:35:48.208Z,97738.13
2022-10-08T05:40:54.700Z,97734.34
2022-10-08T07:51:07.355Z,97790.41
2022-10-08T07:53:33.276Z,97798.97
2022-10-08T07:55:59.204Z,97796.28
2022-10-08T07:58:25.143Z,97793.25
2022-10-08T08:00:51.081Z,97792.06
2022-10-08T08:03:17.099Z,97788.28
2022-10-08T08:05:43.015Z,97792.66
2022-10-08T08:08:08.939Z,97793.31
2022-10-08T08:10:34.864Z,97792.94
2022-10-08T08:13:00.760Z,97793.44
2022-10-08T08:15:26.722Z,97795.97
2022-10-08T08:17:52.618Z,97787.00
2022-10-08T08:20:18.542Z,97792.28
2022-10-08T08:22:44.699Z,97789.25
2022-10-08T08:25:10.902Z,97787.22
2022-10-08T08:27:36.821Z,97792.44
2022-10-08T08:30:02.749Z,97789.16
2022-10-08T08:32:28.802Z,97791.53
2022-10-08T08:34:54.772Z,97784.75
2022-10-08T08:37:20.690Z,97783.84
2022-10-08T08:39:46.619Z,97774.84
2022-10-08T08:42:12.524Z,97784.72
2022-10-08T08:44:38.451Z,97780.16
2022-10-08T08:47:04.382Z,97772.53
2022-10-08T08:49:30.282Z,97773.00
2022-10-08T08:51:56.203Z,97782.47
2022-10-08T08:54:22.114Z,97775.59
2022-10-08T08:56:48.106Z,97779.06
2022-10-08T08:59:13.998Z,97777.78
2022-10-08T09:01:39.986Z,97784.41
2022-10-08T09:04:05.977Z,97788.28
2022-10-08T09:06:31.909Z,97783.81
2022-10-08T09:08:57.812Z,97789.19
2022-10-08T09:11:23.705Z,97781.25
2022-10-08T09:13:49.647Z,97778.50
2022-10-08T09:16:15.801Z,97783.69
2022-10-08T09:18:41.782Z,97790.50
2022-10-08T09:21:07.708Z,97790.41
2022-10-08T09:23:33.616Z,97787.81
2022-10-08T09:25:59.518Z,97801.16
2022-10-08T09:28:25.481Z,97782.38
2022-10-08T09:30:51.496Z,97780.25
2022-10-08T09:33:17.611Z,97792.97
2022-10-08T09:35:43.577Z,97781.97
2022-10-08T09:38:09.497Z,97792.94
2022-10-08T09:40:35.426Z,97787.22
2022-10-08T09:43:01.332Z,97790.22
2022-10-08T09:45:27.241Z,97774.84
2022-10-08T09:47:53.153Z,97779.22
2022-10-08T09:50:19.059Z,97773.91
2022-10-08T09:52:45.310Z,97772.22
2022-10-08T09:55:11.519Z,97770.25
2022-10-08T09:57:41.631Z,97776.16
2022-10-08T10:00:09.542Z,97777.66
2022-10-08T10:02:35.452Z,97771.03
2022-10-08T10:05:01.381Z,97771.66
2022-10-08T10:07:27.309Z,97768.63
2022-10-08T10:09:53.286Z,97768.25
2022-10-08T10:12:19.308Z,97766.28
2022-10-08T10:14:45.243Z,97766.25
2022-10-08T10:17:11.231Z,97762.22
2022-10-08T10:19:37.182Z,97761.63
2022-10-08T10:22:03.091Z,97767.41
2022-10-08T10:24:29.017Z,97766.72
2022-10-08T10:26:55.919Z,97762.63
2022-10-08T10:29:22.189Z,97758.06
2022-10-08T10:31:48.411Z,97760.75
2022-10-08T10:34:14.633Z,97757.19
2022-10-08T10:36:40.780Z,97761.84
2022-10-08T10:39:07.044Z,97756.69
2022-10-08T12:49:35.269Z,97637.41
2022-10-08T12:52:01.183Z,97634.84
2022-10-08T12:54:27.107Z,97629.53
2022-10-08T12:56:53.019Z,97631.88
2022-10-08T12:59:18.952Z,97630.06
2022-10-08T13:01:44.948Z,97633.16
2022-10-08T13:04:10.919Z,97633.72
2022-10-08T13:06:36.841Z,97634.69
2022-10-08T13:09:02.753Z,97630.91
2022-10-08T13:11:28.684Z,97639.00
2022-10-08T13:13:54.592Z,97627.22
2022-10-08T13:16:20.640Z,97628.84
2022-10-08T13:18:46.601Z,97632.78
2022-10-08T13:21:12.551Z,97627.34
2022-10-08T13:23:38.472Z,97630.78
2022-10-08T13:26:04.370Z,97631.63
2022-10-08T13:28:55.650Z,97634.78
2022-10-08T13:31:16.287Z,97641.19
2022-10-08T13:33:42.224Z,97630.44
2022-10-08T13:36:08.147Z,97631.41
2022-10-08T13:38:34.085Z,97627.31
2022-10-08T13:41:00.023Z,97630.38
2022-10-08T13:43:25.943Z,97627.53
2022-10-08T13:45:51.857Z,97625.31
2022-10-08T13:48:17.829Z,97623.66
2022-10-08T13:50:43.757Z,97622.69
2022-10-08T13:53:09.677Z,97633.06
2022-10-08T13:55:35.597Z,97620.91
2022-10-08T13:58:01.497Z,97621.81
2022-10-08T14:00:27.594Z,97623.94
2022-10-08T14:02:53.597Z,97624.28
2022-10-08T14:05:19.516Z,97627.75
2022-10-08T14:07:45.750Z,97622.44
2022-10-08T14:10:11.878Z,97627.81
2022-10-08T14:12:37.818Z,97625.91
2022-10-08T14:15:03.726Z,97627.63
2022-10-08T14:17:29.692Z,97619.25
2022-10-08T14:19:55.648Z,97619.16
2022-10-08T14:22:21.615Z,97620.47
2022-10-08T14:24:47.584Z,97623.88
2022-10-08T14:27:13.518Z,97622.81
2022-10-08T14:29:39.410Z,97621.81
2022-10-08T14:32:05.397Z,97618.00
2022-10-08T14:34:31.317Z,97623.34
2022-10-08T14:36:57.263Z,97626.31
2022-10-08T14:39:23.217Z,97631.16
2022-10-08T14:41:49.130Z,97638.66
2022-10-08T14:44:15.124Z,97641.59
2022-10-08T14:46:41.042Z,97633.81
2022-10-08T14:49:06.952Z,97631.44
2022-10-08T14:51:32.898Z,97624.97
2022-10-08T14:53:58.792Z,97638.16
2022-10-08T14:56:24.715Z,97644.56
2022-10-08T14:58:50.615Z,97642.69
2022-10-08T15:01:16.553Z,97640.81
2022-10-08T15:03:42.572Z,97646.72
2022-10-08T15:06:08.536Z,97643.44
2022-10-08T15:08:34.459Z,97647.50
2022-10-08T15:11:00.355Z,97654.63
2022-10-08T15:13:26.280Z,97652.81
2022-10-08T15:15:52.181Z,97660.50
2022-10-08T15:18:18.115Z,97655.69
2022-10-08T15:20:44.022Z,97658.41
2022-10-08T15:23:09.951Z,97667.03
2022-10-08T15:25:35.873Z,97665.94
2022-10-08T15:28:02.086Z,97675.88
2022-10-08T15:30:28.365Z,97675.09
2022-10-08T15:32:54.602Z,97676.69
2022-10-08T15:35:20.809Z,97685.69
2022-10-08T15:37:47.068Z,97686.59
2022-10-08T15:40:13.371Z,97681.59
2022-10-08T15:42:39.482Z,97689.16
2022-10-08T17:57:51.360Z,97789.91
2022-10-08T18:00:17.264Z,97788.84
2022-10-08T18:02:43.331Z,97787.59
2022-10-08T18:05:09.326Z,97787.59
2022-10-08T18:07:35.244Z,97797.41
2022-10-08T18:10:01.161Z,97809.97
2022-10-08T18:12:27.090Z,97813.94
2022-10-08T18:14:52.989Z,97806.47
2022-10-08T18:17:18.895Z,97814.34
2022-10-08T18:19:44.831Z,97818.47
2022-10-08T18:22:10.751Z,97816.38
2022-10-08T18:24:36.689Z,97823.63
2022-10-08T18:27:02.612Z,97819.25
2022-10-08T18:29:28.531Z,97816.28
2022-10-08T18:31:54.463Z,97824.66
2022-10-08T18:34:20.384Z,97820.16
2022-10-08T18:36:46.313Z,97815.00
2022-10-08T18:39:12.234Z,97819.16
2022-10-08T18:41:38.182Z,97826.22
2022-10-08T18:44:04.123Z,97829.25
2022-10-08T18:46:30.078Z,97822.31
2022-10-08T18:48:56.059Z,97818.31
2022-10-08T18:51:21.974Z,97822.19
2022-10-08T18:53:47.904Z,97819.75
2022-10-08T18:56:13.820Z,97828.09
2022-10-08T18:58:39.743Z,97826.47
2022-10-08T19:01:05.707Z,97820.47
2022-10-08T19:03:31.651Z,97820.13
2022-10-08T19:05:57.612Z,97827.94
2022-10-08T19:08:23.517Z,97831.19
2022-10-08T19:10:49.433Z,97829.84
2022-10-08T19:13:15.379Z,97834.25
2022-10-08T19:15:41.325Z,97825.31
2022-10-08T19:18:07.283Z,97835.53
2022-10-08T19:20:33.292Z,97835.66
2022-10-08T19:22:59.191Z,97837.03
2022-10-08T19:25:25.122Z,97843.28
2022-10-08T19:27:51.032Z,97844.22
2022-10-08T19:30:19.362Z,97849.00
2022-10-08T19:32:47.442Z,97852.22
2022-10-08T19:35:13.516Z,97858.50
2022-10-08T19:37:39.469Z,97855.13
2022-10-08T19:42:46.542Z,97864.28
2022-10-08T19:45:12.956Z,97879.25
2022-10-08T19:47:39.130Z,97879.69
2022-10-08T19:50:05.161Z,97891.16
2022-10-08T19:52:31.184Z,97893.97
2022-10-08T19:57:38.047Z,97895.81
2022-10-08T20:00:04.120Z,97893.94
2022-10-08T20:21:16.913Z,97901.75
2022-10-08T22:06:21.972Z,97933.31
2022-10-08T22:08:47.895Z,97936.63
2022-10-08T22:11:13.818Z,97938.28
2022-10-08T22:13:39.715Z,97936.41
2022-10-08T22:16:05.637Z,97944.41
2022-10-08T22:18:31.560Z,97932.19
2022-10-08T22:20:57.473Z,97931.28
2022-10-08T22:23:23.395Z,97931.41
2022-10-08T22:25:49.298Z,97932.09
2022-10-08T22:28:15.231Z,97930.69
2022-10-08T22:30:41.170Z,97936.75
2022-10-08T22:33:07.061Z,97944.06
2022-10-08T22:35:33.010Z,97944.47
2022-10-08T22:37:58.900Z,97944.16
2022-10-08T22:40:24.815Z,97944.13
2022-10-08T22:42:50.977Z,97943.47
2022-10-08T22:45:16.914Z,97947.97
2022-10-08T22:47:42.850Z,97945.88
2022-10-08T22:50:08.755Z,97949.41
2022-10-08T22:52:34.704Z,97959.22
2022-10-08T22:55:00.606Z,97958.50
2022-10-08T22:57:26.539Z,97966.09
2022-10-08T22:59:52.440Z,97972.94
2022-10-08T23:02:18.372Z,97979.69
2022-10-08T23:04:44.372Z,97987.03
2022-10-08T23:07:10.582Z,97987.28
2022-10-08T23:09:36.498Z,97999.22
2022-10-08T23:12:02.430Z,97992.78
2022-10-08T23:14:28.350Z,97996.34
2022-10-08T23:16:54.353Z,98004.31
2022-10-08T23:19:20.358Z,98016.06
2022-10-08T23:21:46.303Z,98013.59
2022-10-08T23:24:12.229Z,98013.81
2022-10-08T23:26:38.162Z,98021.66
2022-10-08T23:29:04.060Z,98016.53
2022-10-08T23:31:30.054Z,98029.34
2022-10-08T23:33:55.972Z,98031.44
2022-10-08T23:36:21.897Z,98036.91
2022-10-08T23:38:47.810Z,98046.84
2022-10-08T23:41:13.719Z,98056.06
2022-10-08T23:43:39.645Z,98055.50
2022-10-08T23:46:05.818Z,98064.31
2022-10-08T23:48:31.846Z,98056.47
2022-10-08T23:50:57.788Z,98066.69
2022-10-08T23:53:23.683Z,98060.88
2022-10-08T23:55:49.610Z,98070.03
2022-10-08T23:58:15.525Z,98070.50
